Time;durP1;ratioP1;P1;durP2;ratioP2;P2;SDS_P1;SDS_P2;PMS_P1;PMS_P2;Temp;Humidity;BMP_temperature;BMP_pressure;BME280_temperature;BME280_humidity;BME280_pressure;Samples;Min_cycle;Max_cycle;Signal;HPM_P1;HPM_P2
2021/11/02 00:01:31;;;;;;;3.78;2.60;;;;;;;;;;5001441;28;20069;-58
2021/11/02 00:03:56;;;;;;;3.10;1.88;;;;;;;;;;4999852;28;20026;-57
2021/11/02 00:06:22;;;;;;;3.63;2.10;;;;;;;;;;4998892;28;20068;-58
2021/11/02 00:08:48;;;;;;;4.25;2.40;;;;;;;;;;5002649;28;20109;-58
2021/11/02 00:11:13;;;;;;;3.28;1.85;;;;;;;;;;4997058;28;20040;-58
2021/11/02 00:13:43;;;;;;;4.20;2.25;;;;;;;;;;5002919;28;20034;-57
2021/11/02 00:16:11;;;;;;;4.13;1.95;;;;;;;;;;4999062;28;20034;-59
2021/11/02 00:18:41;;;;;;;4.85;2.25;;;;;;;;;;5003387;28;20041;-58
2021/11/02 00:21:07;;;;;;;3.53;2.10;;;;;;;;;;4998389;28;20034;-57
2021/11/02 00:23:37;;;;;;;3.63;1.70;;;;;;;;;;5006975;28;20057;-56
2021/11/02 00:26:05;;;;;;;5.32;2.10;;;;;;;;;;4998466;28;20430;-56
2021/11/02 00:28:31;;;;;;;3.38;2.03;;;;;;;;;;5003639;28;20096;-57
2021/11/02 00:30:56;;;;;;;4.07;2.50;;;;;;;;;;4999816;28;20468;-57
2021/11/02 00:33:22;;;;;;;4.15;1.90;;;;;;;;;;5001894;28;20413;-57
2021/11/02 00:35:47;;;;;;;6.03;2.20;;;;;;;;;;5002772;28;20369;-57
2021/11/02 00:38:13;;;;;;;3.90;2.72;;;;;;;;;;4998621;28;20690;-57
2021/11/02 00:40:40;;;;;;;4.10;2.65;;;;;;;;;;5003092;28;20022;-57
2021/11/02 00:43:06;;;;;;;5.97;2.55;;;;;;;;;;5003497;28;20492;-57
2021/11/02 00:45:34;;;;;;;6.85;2.10;;;;;;;;;;4998288;28;20476;-56
2021/11/02 00:48:03;;;;;;;5.82;2.30;;;;;;;;;;5000905;28;20733;-57
2021/11/02 00:50:29;;;;;;;5.05;2.35;;;;;;;;;;5002400;28;20148;-56
2021/11/02 00:52:55;;;;;;;5.10;2.30;;;;;;;;;;5000903;28;20118;-57
2021/11/02 00:55:21;;;;;;;5.07;2.60;;;;;;;;;;5001644;28;20038;-57
2021/11/02 00:57:46;;;;;;;5.03;2.15;;;;;;;;;;4997615;28;20404;-57
2021/11/02 01:00:13;;;;;;;3.88;2.20;;;;;;;;;;4997844;28;20050;-56
2021/11/02 01:02:38;;;;;;;7.38;2.35;;;;;;;;;;5000673;28;20492;-57
2021/11/02 01:05:05;;;;;;;4.88;2.42;;;;;;;;;;5000902;28;20151;-56
2021/11/02 01:07:31;;;;;;;14.02;2.80;;;;;;;;;;4997129;28;20088;-56
2021/11/02 01:09:56;;;;;;;5.30;3.25;;;;;;;;;;5000486;28;20030;-57
2021/11/02 01:12:22;;;;;;;5.07;3.15;;;;;;;;;;5001816;28;20041;-56
2021/11/02 01:14:47;;;;;;;5.78;2.35;;;;;;;;;;4998645;28;20501;-56
2021/11/02 01:17:13;;;;;;;4.80;2.33;;;;;;;;;;5001353;28;20029;-57
2021/11/02 01:19:38;;;;;;;4.32;2.40;;;;;;;;;;5004882;28;20042;-57
2021/11/02 01:22:04;;;;;;;4.57;2.53;;;;;;;;;;5001554;28;20068;-57
2021/11/02 01:24:29;;;;;;;8.52;3.13;;;;;;;;;;5001778;28;20034;-56
2021/11/02 01:26:55;;;;;;;6.43;3.30;;;;;;;;;;4992057;28;20030;-57
2021/11/02 01:29:20;;;;;;;5.55;2.88;;;;;;;;;;5002304;28;20033;-56
2021/11/02 01:31:47;;;;;;;4.00;2.67;;;;;;;;;;5004303;28;20029;-57
2021/11/02 01:34:12;;;;;;;5.07;2.67;;;;;;;;;;4995724;28;20041;-57
2021/11/02 01:36:40;;;;;;;5.65;2.80;;;;;;;;;;4993399;28;20083;-57
2021/11/02 01:39:07;;;;;;;6.47;3.33;;;;;;;;;;5002963;28;20088;-57
2021/11/02 01:41:36;;;;;;;6.20;3.45;;;;;;;;;;5006407;28;20042;-57
2021/11/02 01:44:03;;;;;;;7.25;3.20;;;;;;;;;;5001011;28;20085;-57
2021/11/02 01:46:32;;;;;;;6.50;3.50;;;;;;;;;;4996750;28;20026;-57
2021/11/02 01:48:59;;;;;;;11.23;4.00;;;;;;;;;;5014920;28;20033;-58
2021/11/02 01:51:27;;;;;;;8.80;4.03;;;;;;;;;;5005697;28;20037;-57
2021/11/02 01:53:53;;;;;;;6.07;3.80;;;;;;;;;;5004710;28;20022;-57
2021/11/02 01:56:20;;;;;;;9.60;4.07;;;;;;;;;;5000417;28;20268;-57
2021/11/02 01:58:53;;;;;;;9.45;5.00;;;;;;;;;;4999778;28;20017;-57
2021/11/02 02:01:33;;;;;;;8.23;4.70;;;;;;;;;;5004043;28;20263;-57
2021/11/02 02:04:07;;;;;;;7.43;4.20;;;;;;;;;;5003642;28;20060;-57
2021/11/02 02:06:43;;;;;;;13.82;4.93;;;;;;;;;;4996125;28;20080;-57
2021/11/02 02:09:23;;;;;;;10.48;4.35;;;;;;;;;;4993572;28;20032;-57
2021/11/02 02:12:01;;;;;;;6.72;3.78;;;;;;;;;;5005902;28;20037;-57
2021/11/02 02:14:32;;;;;;;7.00;3.70;;;;;;;;;;4997452;28;20040;-57
2021/11/02 02:17:00;;;;;;;7.10;4.00;;;;;;;;;;4997544;28;20022;-57
2021/11/02 02:19:52;;;;;;;7.75;4.10;;;;;;;;;;4995910;28;20371;-57
2021/11/02 02:22:37;;;;;;;7.10;4.10;;;;;;;;;;4998721;28;20095;-57
2021/11/02 02:25:16;;;;;;;6.22;3.80;;;;;;;;;;4998056;28;20409;-57
2021/11/02 02:27:59;;;;;;;8.40;4.13;;;;;;;;;;4998429;28;20025;-57
2021/11/02 02:30:26;;;;;;;8.32;3.63;;;;;;;;;;4999103;28;20317;-57
2021/11/02 02:32:54;;;;;;;9.68;4.50;;;;;;;;;;5018034;28;20031;-59
2021/11/02 02:35:22;;;;;;;7.40;4.15;;;;;;;;;;4995733;28;20029;-57
2021/11/02 02:37:49;;;;;;;5.30;3.45;;;;;;;;;;4996697;28;20030;-57
2021/11/02 02:40:15;;;;;;;9.35;3.63;;;;;;;;;;5001814;28;20084;-58
2021/11/02 02:42:41;;;;;;;7.57;3.83;;;;;;;;;;4999309;28;20038;-57
2021/11/02 02:45:11;;;;;;;8.30;3.55;;;;;;;;;;4998251;28;20029;-57
2021/11/02 02:47:37;;;;;;;7.15;3.80;;;;;;;;;;4995731;28;20029;-57
2021/11/02 02:50:06;;;;;;;7.75;3.55;;;;;;;;;;4999654;28;20034;-57
2021/11/02 02:52:32;;;;;;;7.82;3.60;;;;;;;;;;4997448;28;20385;-58
2021/11/02 02:55:00;;;;;;;8.40;3.55;;;;;;;;;;4992997;28;20025;-57
2021/11/02 02:57:27;;;;;;;4.93;3.22;;;;;;;;;;4997172;28;20022;-57
2021/11/02 02:59:53;;;;;;;5.32;3.05;;;;;;;;;;4999687;28;20018;-57
2021/11/02 03:02:22;;;;;;;6.47;3.13;;;;;;;;;;4994538;28;20088;-57
2021/11/02 03:04:48;;;;;;;5.40;2.90;;;;;;;;;;4998592;28;20072;-57
2021/11/02 03:07:15;;;;;;;5.80;3.10;;;;;;;;;;4998256;28;20036;-57
2021/11/02 03:09:43;;;;;;;5.57;3.03;;;;;;;;;;4995368;28;20044;-56
2021/11/02 03:12:11;;;;;;;4.53;2.80;;;;;;;;;;5002720;28;20444;-58
2021/11/02 03:15:45;;;;;;;3.95;2.70;;;;;;;;;;4999562;28;20027;-58
2021/11/02 03:17:34;;;;;;;4.93;2.70;;;;;;;;;;4994201;28;20053;-58
2021/11/02 03:58:23;;;;;;;3.95;1.90;;;;;;;;;;4999255;28;20072;-57
2021/11/02 05:48:07;;;;;;;9.60;4.53;;;;;;;;;;5000128;28;20076;-58
2021/11/02 06:03:48;;;;;;;10.57;4.93;;;;;;;;;;5002688;28;20409;-57
2021/11/02 06:08:58;;;;;;;4.20;1.85;;;;;;;;;;5004394;28;20033;-58
2021/11/02 06:28:38;;;;;;;9.05;2.97;;;;;;;;;;5003826;28;20044;-58
2021/11/02 06:42:06;;;;;;;7.75;3.88;;;;;;;;;;5002374;28;20049;-58
2021/11/02 07:19:27;;;;;;;8.23;4.55;;;;;;;;;;5007329;28;20113;-58
2021/11/02 07:30:20;;;;;;;7.28;4.32;;;;;;;;;;5001384;28;20026;-58
2021/11/02 08:45:58;;;;;;;4.47;2.80;;;;;;;;;;5005596;28;20129;-57
2021/11/02 08:48:28;;;;;;;6.70;3.13;;;;;;;;;;5001618;28;20583;-57
2021/11/02 08:50:55;;;;;;;5.70;2.55;;;;;;;;;;5006728;28;20029;-57
2021/11/02 08:53:23;;;;;;;7.50;3.47;;;;;;;;;;5003966;28;20030;-57
2021/11/02 08:55:51;;;;;;;2.92;2.20;;;;;;;;;;5001618;28;20121;-57
2021/11/02 08:58:18;;;;;;;4.75;2.20;;;;;;;;;;5002701;28;20084;-57
2021/11/02 09:00:44;;;;;;;4.40;2.20;;;;;;;;;;5007093;28;20413;-58
2021/11/02 09:03:23;;;;;;;4.57;2.10;;;;;;;;;;5021280;28;20025;-59
2021/11/02 09:06:00;;;;;;;4.18;2.22;;;;;;;;;;5004505;28;20033;-58
2021/11/02 09:08:29;;;;;;;4.78;1.90;;;;;;;;;;5011153;28;20083;-59
2021/11/02 09:10:55;;;;;;;3.60;1.52;;;;;;;;;;5004695;28;20029;-58
2021/11/02 09:13:25;;;;;;;5.53;2.10;;;;;;;;;;5002797;28;20568;-58
2021/11/02 09:15:51;;;;;;;4.22;2.13;;;;;;;;;;5006307;28;20464;-58
2021/11/02 09:18:20;;;;;;;3.58;2.15;;;;;;;;;;5001961;28;20025;-58
2021/11/02 09:20:45;;;;;;;4.53;2.25;;;;;;;;;;5006870;28;20014;-58
2021/11/02 09:23:11;;;;;;;3.95;2.45;;;;;;;;;;5007840;28;20373;-58
2021/11/02 09:25:37;;;;;;;3.33;2.35;;;;;;;;;;5007640;28;20497;-58
2021/11/02 09:28:03;;;;;;;4.95;2.42;;;;;;;;;;5005250;28;20026;-58
2021/11/02 09:30:28;;;;;;;5.15;2.45;;;;;;;;;;5006367;28;20073;-59
2021/11/02 09:32:56;;;;;;;5.13;2.72;;;;;;;;;;5007667;28;20021;-59
2021/11/02 09:35:26;;;;;;;4.45;2.95;;;;;;;;;;5004965;28;20416;-59
2021/11/02 09:38:10;;;;;;;7.95;4.00;;;;;;;;;;5003933;28;20034;-59
2021/11/02 09:40:56;;;;;;;4.97;3.10;;;;;;;;;;5001567;28;20544;-59
2021/11/02 09:43:48;;;;;;;3.70;2.50;;;;;;;;;;5002104;28;20026;-59
2021/11/02 09:46:49;;;;;;;6.78;2.72;;;;;;;;;;5003016;28;20022;-59
2021/11/02 09:49:43;;;;;;;4.70;2.38;;;;;;;;;;4978902;28;20042;-60
2021/11/02 09:52:53;;;;;;;5.60;2.58;;;;;;;;;;5006548;28;20033;-60
2021/11/02 09:55:56;;;;;;;4.75;2.60;;;;;;;;;;4990835;28;20125;-59
2021/11/02 09:58:31;;;;;;;4.30;2.40;;;;;;;;;;5003324;28;20030;-59
2021/11/02 10:01:14;;;;;;;3.80;2.10;;;;;;;;;;5020089;28;20044;-58
2021/11/02 10:03:44;;;;;;;6.63;2.28;;;;;;;;;;5001050;28;20038;-58
2021/11/02 10:06:42;;;;;;;2.60;1.90;;;;;;;;;;4999196;28;20519;-58
2021/11/02 10:09:36;;;;;;;4.10;1.90;;;;;;;;;;5001749;28;20041;-58
2021/11/02 10:12:07;;;;;;;;;;;;;;;;;;4999794;28;20113;-58
2021/11/02 10:14:59;;;;;;;4.88;2.05;;;;;;;;;;5002466;28;19921;-57
2021/11/02 10:17:54;;;;;;;3.03;1.70;;;;;;;;;;5003503;28;20500;-58
2021/11/02 10:20:48;;;;;;;2.67;1.73;;;;;;;;;;5003308;28;20041;-59
2021/11/02 10:23:16;;;;;;;3.03;1.65;;;;;;;;;;4998828;28;20129;-59
2021/11/02 10:26:00;;;;;;;4.45;2.45;;;;;;;;;;5007645;28;20485;-59
2021/11/02 10:28:44;;;;;;;3.13;2.00;;;;;;;;;;5005760;28;20038;-59
2021/11/02 10:31:31;;;;;;;3.67;2.00;;;;;;;;;;5004059;28;20528;-59
2021/11/02 10:34:02;;;;;;;2.67;1.77;;;;;;;;;;5004907;28;20136;-58
2021/11/02 10:37:00;;;;;;;2.53;1.67;;;;;;;;;;5003734;28;20150;-59
2021/11/02 10:39:57;;;;;;;2.00;1.50;;;;;;;;;;5006873;28;20117;-59
2021/11/02 10:42:26;;;;;;;5.03;2.20;;;;;;;;;;5006493;28;20033;-58
2021/11/02 10:44:57;;;;;;;2.65;1.60;;;;;;;;;;5005284;28;20044;-58
2021/11/02 10:47:31;;;;;;;2.70;2.00;;;;;;;;;;5003826;28;20080;-58
2021/11/02 10:49:57;;;;;;;2.22;1.60;;;;;;;;;;5001634;28;20029;-58
2021/11/02 10:52:27;;;;;;;3.47;1.88;;;;;;;;;;5006053;28;20025;-58
2021/11/02 10:55:22;;;;;;;2.47;1.80;;;;;;;;;;5005733;28;20076;-58
2021/11/02 10:58:02;;;;;;;3.83;2.20;;;;;;;;;;5002673;28;20037;-57
2021/11/02 11:00:29;;;;;;;3.10;1.45;;;;;;;;;;5003462;28;20026;-58
2021/11/02 11:02:55;;;;;;;1.67;1.58;;;;;;;;;;5005213;28;20531;-58
2021/11/02 11:05:27;;;;;;;2.05;1.55;;;;;;;;;;5006265;28;20030;-58
2021/11/02 11:07:54;;;;;;;1.77;1.30;;;;;;;;;;5005613;28;20499;-58
2021/11/02 11:10:22;;;;;;;1.88;1.27;;;;;;;;;;5005856;28;20030;-58
2021/11/02 11:12:54;;;;;;;1.13;1.03;;;;;;;;;;5002669;28;20052;-58
2021/11/02 11:15:20;;;;;;;1.75;1.25;;;;;;;;;;5004904;28;20084;-58
2021/11/02 11:18:00;;;;;;;1.65;1.40;;;;;;;;;;5009173;28;20030;-58
2021/11/02 11:20:26;;;;;;;1.52;1.40;;;;;;;;;;5005608;28;20021;-58
2021/11/02 11:22:53;;;;;;;1.90;1.38;;;;;;;;;;5003477;28;20503;-58
2021/11/02 11:25:29;;;;;;;1.30;1.20;;;;;;;;;;5007627;28;20022;-58
2021/11/02 11:27:56;;;;;;;1.92;1.52;;;;;;;;;;5004791;28;20029;-58
2021/11/02 11:30:32;;;;;;;1.40;1.30;;;;;;;;;;5000802;28;20029;-58
2021/11/02 11:32:59;;;;;;;3.58;1.70;;;;;;;;;;5004500;28;20113;-58
2021/11/02 11:35:25;;;;;;;4.70;2.70;;;;;;;;;;5003117;28;20026;-58
2021/11/02 11:37:52;;;;;;;5.18;2.42;;;;;;;;;;5006542;28;20033;-58
2021/11/02 11:40:20;;;;;;;1.83;1.70;;;;;;;;;;5000321;28;20073;-58
2021/11/02 11:42:49;;;;;;;3.10;1.80;;;;;;;;;;5005620;28;20083;-59
2021/11/02 11:45:18;;;;;;;1.70;1.60;;;;;;;;;;5006264;28;20032;-59
2021/11/02 11:47:43;;;;;;;1.73;1.40;;;;;;;;;;5005119;28;20052;-58
2021/11/02 11:50:25;;;;;;;1.70;1.30;;;;;;;;;;5008698;28;20079;-58
2021/11/02 11:52:59;;;;;;;3.45;1.50;;;;;;;;;;5005392;28;20026;-58
2021/11/02 11:55:29;;;;;;;3.88;2.33;;;;;;;;;;5005471;28;20037;-58
2021/11/02 11:58:03;;;;;;;2.83;1.90;;;;;;;;;;5002713;28;20026;-58
2021/11/02 12:00:29;;;;;;;3.45;2.42;;;;;;;;;;4999732;28;20065;-58
2021/11/02 12:03:04;;;;;;;4.88;1.95;;;;;;;;;;5002314;28;20577;-58
2021/11/02 12:05:30;;;;;;;12.57;4.90;;;;;;;;;;5002395;28;20029;-59
2021/11/02 12:08:28;;;;;;;14.88;5.45;;;;;;;;;;4999102;28;20091;-59
2021/11/02 12:11:01;;;;;;;4.25;2.30;;;;;;;;;;5006121;28;20065;-59
2021/11/02 12:13:28;;;;;;;11.23;4.35;;;;;;;;;;5003823;28;20145;-58
2021/11/02 12:16:14;;;;;;;;;;;;;;;;;;;;;
2021/11/02 12:18:41;;;;;;;1.63;1.20;;;;;;;;;;5008098;28;20676;-58
2021/11/02 12:21:11;;;;;;;2.47;1.50;;;;;;;;;;5002329;28;20023;-59
2021/11/02 12:23:41;;;;;;;2.72;1.60;;;;;;;;;;5020380;28;20034;-58
2021/11/02 12:26:09;;;;;;;2.92;1.92;;;;;;;;;;5000246;28;20026;-58
2021/11/02 12:28:35;;;;;;;2.20;1.58;;;;;;;;;;5004149;28;20066;-59
2021/11/02 12:31:09;;;;;;;3.20;2.13;;;;;;;;;;5001149;28;20115;-59
2021/11/02 12:33:36;;;;;;;2.03;1.55;;;;;;;;;;5002670;28;20049;-59
2021/11/02 12:36:04;;;;;;;2.47;1.65;;;;;;;;;;5003625;28;20032;-59
2021/11/02 12:38:35;;;;;;;1.77;1.65;;;;;;;;;;5008275;28;20608;-59
2021/11/02 12:41:01;;;;;;;2.08;1.67;;;;;;;;;;5003989;28;20026;-60
2021/11/02 12:43:31;;;;;;;1.40;1.30;;;;;;;;;;5002705;28;20022;-59
2021/11/02 12:46:01;;;;;;;2.30;1.85;;;;;;;;;;5002162;28;20022;-59
2021/11/02 12:48:28;;;;;;;1.48;1.25;;;;;;;;;;5002746;28;20157;-60
2021/11/02 12:50:55;;;;;;;1.50;1.40;;;;;;;;;;5005238;28;20022;-58
2021/11/02 12:53:21;;;;;;;1.45;1.35;;;;;;;;;;5006119;28;20033;-58
2021/11/02 12:55:46;;;;;;;2.03;1.55;;;;;;;;;;5010354;28;20029;-57
2021/11/02 12:58:12;;;;;;;2.70;1.75;;;;;;;;;;5001345;28;20040;-58
2021/11/02 13:00:44;;;;;;;2.35;1.95;;;;;;;;;;5002336;28;20014;-58
2021/11/02 13:03:19;;;;;;;1.70;1.60;;;;;;;;;;5006828;28;20068;-58
2021/11/02 13:06:01;;;;;;;3.20;1.35;;;;;;;;;;5003608;28;20030;-57
2021/11/02 13:08:30;;;;;;;1.40;1.20;;;;;;;;;;5002194;28;20033;-58
2021/11/02 13:11:02;;;;;;;;;;;;;;;;;;5006132;28;20048;-58
2021/11/02 13:13:31;;;;;;;6.95;1.52;;;;;;;;;;5004360;28;19921;-57
2021/11/02 13:15:58;;;;;;;1.55;1.45;;;;;;;;;;5001672;28;20030;-58
2021/11/02 13:18:33;;;;;;;1.88;1.63;;;;;;;;;;5002503;28;20038;-58
2021/11/02 13:21:19;;;;;;;4.22;2.08;;;;;;;;;;5006670;28;20041;-58
2021/11/02 13:23:49;;;;;;;6.75;2.58;;;;;;;;;;5005650;28;20044;-58
2021/11/02 13:26:18;;;;;;;;;;;;;;;;;;5000717;28;20033;-58
2021/11/02 13:28:44;;;;;;;10.05;4.43;;;;;;;;;;4997393;28;20323;-58
2021/11/02 13:31:35;;;;;;;19.10;7.88;;;;;;;;;;5003205;28;20080;-58
2021/11/02 13:34:03;;;;;;;2.90;2.40;;;;;;;;;;5002647;28;20026;-58
2021/11/02 13:36:30;;;;;;;6.45;2.30;;;;;;;;;;5004054;28;20491;-58
2021/11/02 13:39:09;;;;;;;4.47;2.70;;;;;;;;;;5000608;28;20084;-58
2021/11/02 13:41:42;;;;;;;4.55;2.60;;;;;;;;;;5007150;28;20022;-58
2021/11/02 13:44:10;;;;;;;6.40;3.30;;;;;;;;;;5004159;28;20041;-58
2021/11/02 13:46:36;;;;;;;3.05;2.20;;;;;;;;;;5000252;28;21370;-57
2021/11/02 13:49:03;;;;;;;4.35;2.78;;;;;;;;;;5003297;28;20052;-57
2021/11/02 13:51:28;;;;;;;1.98;1.55;;;;;;;;;;5002723;28;20054;-57
2021/11/02 13:53:54;;;;;;;0.85;0.77;;;;;;;;;;5003656;28;20571;-58
2021/11/02 13:56:23;;;;;;;1.75;1.30;;;;;;;;;;5000408;28;20580;-60
2021/11/02 13:58:50;;;;;;;1.60;1.50;;;;;;;;;;4999355;28;20026;-59
2021/11/02 14:01:27;;;;;;;1.20;1.10;;;;;;;;;;5002787;28;20030;-59
2021/11/02 14:04:18;;;;;;;1.63;1.50;;;;;;;;;;5001413;28;20022;-60
2021/11/02 14:06:59;;;;;;;3.45;2.20;;;;;;;;;;4994109;28;20473;-58
2021/11/02 14:09:27;;;;;;;6.15;2.47;;;;;;;;;;5002065;28;20057;-58
2021/11/02 14:11:53;;;;;;;6.85;2.90;;;;;;;;;;5004652;28;20029;-59
2021/11/02 14:14:38;;;;;;;3.15;1.48;;;;;;;;;;5005594;28;20026;-60
2021/11/02 14:17:21;;;;;;;2.70;1.10;;;;;;;;;;5007310;28;20105;-60
2021/11/02 14:19:51;;;;;;;2.15;0.90;;;;;;;;;;5005215;28;20022;-61
2021/11/02 14:22:41;;;;;;;3.50;1.40;;;;;;;;;;4996982;28;20033;-61
2021/11/02 14:25:31;;;;;;;3.97;1.00;;;;;;;;;;5005154;28;20045;-60
2021/11/02 14:27:57;;;;;;;1.00;0.90;;;;;;;;;;4996050;28;20064;-60
2021/11/02 14:30:32;;;;;;;2.85;1.20;;;;;;;;;;5021925;28;20509;-60
2021/11/02 14:33:01;;;;;;;1.45;1.00;;;;;;;;;;5004843;28;20026;-60
2021/11/02 14:35:39;;;;;;;1.48;0.77;;;;;;;;;;4997481;28;20030;-60
2021/11/02 14:38:09;;;;;;;0.85;0.82;;;;;;;;;;5003368;28;20026;-60
2021/11/02 14:40:36;;;;;;;2.95;1.42;;;;;;;;;;5002033;28;20076;-60
2021/11/02 14:43:14;;;;;;;2.35;0.80;;;;;;;;;;5000327;28;20026;-60
2021/11/02 14:45:44;;;;;;;0.93;0.85;;;;;;;;;;4998325;28;20499;-60
2021/11/02 14:48:24;;;;;;;2.60;1.13;;;;;;;;;;5001187;28;20261;-60
2021/11/02 14:50:54;;;;;;;1.30;0.90;;;;;;;;;;5002429;28;20092;-58
2021/11/02 14:53:27;;;;;;;0.68;0.68;;;;;;;;;;5001361;28;20123;-59
2021/11/02 14:55:54;;;;;;;1.52;0.85;;;;;;;;;;4997519;28;20036;-58
2021/11/02 14:58:38;;;;;;;0.80;0.80;;;;;;;;;;5004716;28;20033;-58
2021/11/02 15:01:05;;;;;;;1.10;1.00;;;;;;;;;;5003289;28;20033;-58
2021/11/02 15:03:33;;;;;;;2.50;1.10;;;;;;;;;;4999842;28;20490;-59
2021/11/02 15:06:04;;;;;;;1.85;0.90;;;;;;;;;;5004916;28;20535;-60
2021/11/02 15:08:31;;;;;;;1.10;1.00;;;;;;;;;;5000757;28;20129;-59
2021/11/02 15:11:01;;;;;;;1.55;1.00;;;;;;;;;;5002740;28;20037;-59
2021/11/02 15:13:26;;;;;;;1.40;1.00;;;;;;;;;;4999301;28;20040;-59
2021/11/02 15:15:54;;;;;;;0.70;0.70;;;;;;;;;;5004339;28;20461;-57
2021/11/02 15:18:20;;;;;;;0.90;0.90;;;;;;;;;;5005146;28;20052;-59
2021/11/02 15:20:48;;;;;;;3.05;1.00;;;;;;;;;;5001370;28;20655;-58
2021/11/02 15:23:14;;;;;;;0.82;0.70;;;;;;;;;;5005289;28;20022;-59
2021/11/02 15:25:42;;;;;;;1.10;1.00;;;;;;;;;;5008261;28;20030;-58
2021/11/02 15:28:08;;;;;;;1.63;1.42;;;;;;;;;;4998396;28;20038;-59
2021/11/02 15:30:35;;;;;;;9.07;4.07;;;;;;;;;;5005186;28;20079;-58
2021/11/02 15:33:00;;;;;;;7.15;3.40;;;;;;;;;;5010609;28;20100;-58
2021/11/02 15:35:28;;;;;;;5.15;2.05;;;;;;;;;;5004872;28;20191;-58
2021/11/02 15:37:59;;;;;;;2.05;1.70;;;;;;;;;;5005315;28;20139;-58
2021/11/02 15:40:36;;;;;;;1.55;1.45;;;;;;;;;;5005468;28;20022;-58
2021/11/02 15:43:05;;;;;;;6.63;3.70;;;;;;;;;;5003934;28;20397;-58
2021/11/02 15:45:35;;;;;;;4.10;2.38;;;;;;;;;;5019747;28;20050;-58
2021/11/02 15:48:28;;;;;;;;;;;;;;;;;;5002925;28;20037;-58
2021/11/02 15:50:55;;;;;;;5.28;2.80;;;;;;;;;;5005639;28;19917;-57
2021/11/02 15:53:27;;;;;;;3.85;2.20;;;;;;;;;;5005694;28;20022;-58
2021/11/02 15:56:02;;;;;;;2.65;1.13;;;;;;;;;;5001579;28;20037;-58
2021/11/02 15:58:28;;;;;;;7.72;3.15;;;;;;;;;;5004188;28;20030;-58
2021/11/02 16:00:55;;;;;;;5.10;2.10;;;;;;;;;;5004199;28;20098;-57
2021/11/02 16:03:20;;;;;;;3.47;1.98;;;;;;;;;;5008661;28;20041;-57
2021/11/02 16:05:46;;;;;;;2.70;1.90;;;;;;;;;;5007212;28;20034;-57
2021/11/02 16:08:20;;;;;;;2.58;1.48;;;;;;;;;;5007817;28;20022;-57
2021/11/02 16:10:46;;;;;;;2.75;1.90;;;;;;;;;;5003386;28;20030;-58
2021/11/02 16:13:12;;;;;;;2.83;1.92;;;;;;;;;;5002933;28;20034;-58
2021/11/02 16:15:39;;;;;;;3.75;2.55;;;;;;;;;;5006727;28;20028;-58
2021/11/02 16:18:22;;;;;;;1.60;1.38;;;;;;;;;;5003669;28;20171;-57
2021/11/02 16:20:48;;;;;;;3.90;2.00;;;;;;;;;;5001223;28;20053;-58
2021/11/02 16:23:17;;;;;;;2.15;1.20;;;;;;;;;;5018051;28;20440;-59
2021/11/02 16:25:46;;;;;;;3.17;1.45;;;;;;;;;;5008299;28;20480;-59
2021/11/02 16:28:17;;;;;;;3.03;1.60;;;;;;;;;;5003110;28;20413;-59
2021/11/02 16:30:49;;;;;;;14.18;5.78;;;;;;;;;;4999341;28;20029;-58
2021/11/02 16:33:16;;;;;;;4.85;2.80;;;;;;;;;;5001241;28;20255;-58
2021/11/02 16:35:43;;;;;;;3.58;2.15;;;;;;;;;;5007081;28;20087;-58
2021/11/02 16:38:34;;;;;;;2.53;1.40;;;;;;;;;;5013617;28;20038;-58
2021/11/02 16:41:04;;;;;;;3.47;1.70;;;;;;;;;;5002147;28;20022;-58
2021/11/02 16:43:31;;;;;;;;;;;;;;;;;;5007326;28;20052;-59
2021/11/02 16:45:58;;;;;;;4.30;2.72;;;;;;;;;;5004490;28;20621;-58
2021/11/02 16:48:35;;;;;;;7.78;3.38;;;;;;;;;;5019028;28;20065;-58
2021/11/02 16:51:01;;;;;;;19.67;10.18;;;;;;;;;;5004494;28;20034;-58
2021/11/02 16:53:26;;;;;;;17.75;9.10;;;;;;;;;;5005625;28;20028;-58
2021/11/02 16:55:53;;;;;;;21.42;9.70;;;;;;;;;;5000350;28;20029;-58
2021/11/02 16:58:18;;;;;;;7.10;3.33;;;;;;;;;;5000048;28;20109;-58
2021/11/02 17:00:45;;;;;;;3.92;1.80;;;;;;;;;;5004614;28;20573;-58
2021/11/02 17:03:14;;;;;;;3.40;1.65;;;;;;;;;;5003368;28;20115;-59
2021/11/02 17:05:40;;;;;;;3.15;1.60;;;;;;;;;;5002466;28;20519;-59
2021/11/02 17:08:08;;;;;;;2.88;1.40;;;;;;;;;;5003618;28;20088;-58
2021/11/02 17:10:35;;;;;;;3.75;1.73;;;;;;;;;;5006611;28;20049;-59
2021/11/02 17:13:13;;;;;;;4.65;2.42;;;;;;;;;;5003029;28;20033;-59
2021/11/02 17:15:55;;;;;;;3.50;2.35;;;;;;;;;;4997757;28;20437;-59
2021/11/02 17:18:25;;;;;;;9.82;5.65;;;;;;;;;;5005403;28;20033;-59
2021/11/02 17:21:05;;;;;;;8.55;5.00;;;;;;;;;;5004975;28;20029;-59
2021/11/02 17:23:31;;;;;;;;;;;;;;;;;;5005367;28;20088;-59
2021/11/02 17:25:57;;;;;;;4.72;2.40;;;;;;;;;;4987628;28;20240;-58
2021/11/02 17:28:23;;;;;;;5.60;3.42;;;;;;;;;;5005092;28;20076;-58
2021/11/02 17:30:48;;;;;;;6.85;4.13;;;;;;;;;;5000535;28;20030;-59
2021/11/02 17:33:16;;;;;;;9.93;4.30;;;;;;;;;;4999443;28;20474;-60
2021/11/02 17:35:46;;;;;;;7.85;3.80;;;;;;;;;;5001483;28;20257;-58
2021/11/02 17:38:13;;;;;;;6.30;2.72;;;;;;;;;;5003148;28;20032;-58
2021/11/02 17:40:40;;;;;;;6.47;3.88;;;;;;;;;;5001685;28;20036;-58
2021/11/02 17:43:06;;;;;;;8.57;4.80;;;;;;;;;;5019573;28;20076;-58
2021/11/02 17:45:33;;;;;;;9.52;3.85;;;;;;;;;;5007639;28;20259;-59
2021/11/02 17:47:59;;;;;;;6.38;3.97;;;;;;;;;;5005280;28;20040;-58
2021/11/02 17:50:28;;;;;;;4.15;3.45;;;;;;;;;;5009338;28;20034;-58
2021/11/02 17:52:54;;;;;;;5.87;3.30;;;;;;;;;;5004195;28;20037;-58
2021/11/02 17:55:20;;;;;;;4.55;2.53;;;;;;;;;;5007293;28;20112;-58
2021/11/02 17:57:47;;;;;;;3.78;2.95;;;;;;;;;;5004674;28;20413;-58
2021/11/02 18:00:17;;;;;;;4.13;2.55;;;;;;;;;;5006043;28;20022;-58
2021/11/02 18:02:44;;;;;;;7.95;5.50;;;;;;;;;;5001236;28;20105;-58
2021/11/02 18:05:11;;;;;;;5.43;3.40;;;;;;;;;;5000384;28;20121;-59
2021/11/02 18:07:37;;;;;;;9.18;3.85;;;;;;;;;;5000554;28;20378;-58
2021/11/02 18:10:04;;;;;;;8.45;4.32;;;;;;;;;;5002353;28;20064;-58
2021/11/02 18:12:31;;;;;;;8.05;3.25;;;;;;;;;;4997070;28;20029;-58
2021/11/02 18:14:57;;;;;;;7.75;4.18;;;;;;;;;;5005877;28;20396;-58
2021/11/02 18:17:28;;;;;;;9.60;3.90;;;;;;;;;;5001572;28;20029;-58
2021/11/02 18:19:56;;;;;;;8.38;4.05;;;;;;;;;;5004913;28;20045;-58
2021/11/02 18:22:24;;;;;;;8.18;4.72;;;;;;;;;;4994845;28;20026;-59
2021/11/02 18:24:50;;;;;;;9.10;4.45;;;;;;;;;;4998150;28;20030;-58
2021/11/02 18:27:18;;;;;;;9.02;4.68;;;;;;;;;;4998258;28;20034;-57
2021/11/02 18:29:45;;;;;;;7.38;4.55;;;;;;;;;;5001903;28;20045;-59
2021/11/02 18:32:12;;;;;;;5.05;3.28;;;;;;;;;;5004268;28;20137;-58
2021/11/02 18:34:37;;;;;;;5.80;4.50;;;;;;;;;;5003330;28;20030;-58
2021/11/02 18:37:04;;;;;;;7.55;4.72;;;;;;;;;;4999158;28;20027;-58
2021/11/02 18:39:31;;;;;;;11.65;5.95;;;;;;;;;;5001831;28;20026;-60
2021/11/02 18:41:56;;;;;;;12.00;6.50;;;;;;;;;;5004883;28;20026;-59
2021/11/02 18:44:22;;;;;;;13.73;7.53;;;;;;;;;;5003132;28;20051;-59
2021/11/02 18:46:48;;;;;;;15.10;8.02;;;;;;;;;;5000665;28;20030;-59
2021/11/02 18:49:15;;;;;;;18.33;9.95;;;;;;;;;;5002013;28;20037;-58
2021/11/02 18:51:42;;;;;;;26.88;14.93;;;;;;;;;;5005959;28;20168;-59
2021/11/02 18:54:08;;;;;;;23.05;12.80;;;;;;;;;;5000466;28;20025;-58
2021/11/02 18:56:34;;;;;;;23.90;11.93;;;;;;;;;;5009232;28;20397;-58
2021/11/02 18:58:59;;;;;;;29.35;15.52;;;;;;;;;;5005381;28;20312;-59
2021/11/02 19:01:25;;;;;;;35.63;18.08;;;;;;;;;;5007134;28;20516;-57
2021/11/02 19:03:57;;;;;;;37.85;20.10;;;;;;;;;;5005010;28;20041;-58
2021/11/02 19:06:26;;;;;;;27.42;15.18;;;;;;;;;;5004734;28;20144;-57
2021/11/02 19:08:53;;;;;;;16.10;9.93;;;;;;;;;;5008473;28;20029;-59
2021/11/02 19:11:19;;;;;;;14.27;7.80;;;;;;;;;;5009082;28;20049;-59
2021/11/02 19:13:45;;;;;;;8.48;5.22;;;;;;;;;;5006829;28;20107;-59
2021/11/02 19:16:12;;;;;;;10.32;5.40;;;;;;;;;;5005063;28;20447;-59
2021/11/02 19:18:40;;;;;;;10.95;6.60;;;;;;;;;;5007892;28;20044;-58
2021/11/02 19:21:07;;;;;;;10.80;6.63;;;;;;;;;;5009632;28;20026;-58
2021/11/02 19:23:33;;;;;;;9.40;5.85;;;;;;;;;;5002687;28;20144;-58
2021/11/02 19:25:58;;;;;;;7.90;5.60;;;;;;;;;;4998325;28;20152;-58
2021/11/02 19:28:24;;;;;;;9.43;5.35;;;;;;;;;;5002874;28;20030;-58
2021/11/02 19:30:49;;;;;;;10.18;6.80;;;;;;;;;;5004059;28;20527;-58
2021/11/02 19:33:17;;;;;;;6.25;3.85;;;;;;;;;;5006366;28;20518;-58
2021/11/02 19:35:43;;;;;;;9.73;5.25;;;;;;;;;;5008596;28;20084;-59
2021/11/02 19:38:09;;;;;;;10.48;5.93;;;;;;;;;;5003609;28;20030;-58
2021/11/02 19:40:35;;;;;;;18.63;9.23;;;;;;;;;;5000682;28;20029;-60
2021/11/02 19:43:01;;;;;;;17.38;9.35;;;;;;;;;;4995319;28;20714;-58
2021/11/02 19:45:26;;;;;;;28.98;14.02;;;;;;;;;;4997252;28;20132;-57
2021/11/02 19:47:52;;;;;;;15.48;8.52;;;;;;;;;;5001396;28;20076;-58
2021/11/02 19:50:19;;;;;;;12.98;7.00;;;;;;;;;;5000913;28;20124;-58
2021/11/02 19:52:46;;;;;;;7.32;4.85;;;;;;;;;;5005440;28;20026;-57
2021/11/02 19:55:14;;;;;;;5.60;3.67;;;;;;;;;;5002186;28;20045;-57
2021/11/02 19:57:41;;;;;;;8.73;4.32;;;;;;;;;;4997589;28;20085;-57
2021/11/02 20:00:08;;;;;;;10.90;5.82;;;;;;;;;;4996824;28;20021;-56
2021/11/02 20:02:34;;;;;;;9.07;5.18;;;;;;;;;;5001750;28;20029;-56
2021/11/02 20:05:01;;;;;;;9.27;5.40;;;;;;;;;;4999996;28;20064;-58
2021/11/02 20:07:31;;;;;;;11.25;5.85;;;;;;;;;;5003185;28;20048;-55
2021/11/02 20:10:08;;;;;;;13.45;7.40;;;;;;;;;;5000502;28;20372;-61